sensor_id;sensor_type;location;lat;lon;timestamp;pressure;altitude;pressure_sealevel;temperature;humidity
26775;BME280;14362;51.902;7.626;2023-02-04T00:00:49;102407.91;;;5.86;100.00
26775;BME280;14362;51.902;7.626;2023-02-04T00:04:52;102401.19;;;5.82;100.00
26775;BME280;14362;51.902;7.626;2023-02-04T00:08:53;102405.31;;;5.79;100.00
26775;BME280;14362;51.902;7.626;2023-02-04T00:12:55;102423.81;;;5.79;100.00
26775;BME280;14362;51.902;7.626;2023-02-04T00:16:56;102417.59;;;5.72;100.00
26775;BME280;14362;51.902;7.626;2023-02-04T00:20:59;102416.75;;;5.71;100.00
26775;BME280;14362;51.902;7.626;2023-02-04T00:25:00;102420.38;;;5.72;100.00
26775;BME280;14362;51.902;7.626;2023-02-04T00:29:01;102430.69;;;5.76;100.00
26775;BME280;14362;51.902;7.626;2023-02-04T00:33:03;102427.91;;;5.76;100.00
26775;BME280;14362;51.902;7.626;2023-02-04T00:37:06;102419.38;;;5.78;100.00
26775;BME280;14362;51.902;7.626;2023-02-04T00:41:07;102445.34;;;5.77;100.00
26775;BME280;14362;51.902;7.626;2023-02-04T00:45:10;102445.97;;;5.79;100.00
26775;BME280;14362;51.902;7.626;2023-02-04T00:49:11;102457.28;;;5.77;100.00
26775;BME280;14362;51.902;7.626;2023-02-04T00:53:14;102459.16;;;5.77;100.00
26775;BME280;14362;51.902;7.626;2023-02-04T00:57:16;102460.53;;;5.74;100.00
26775;BME280;14362;51.902;7.626;2023-02-04T01:01:17;102466.91;;;5.75;100.00
26775;BME280;14362;51.902;7.626;2023-02-04T01:05:18;102459.34;;;5.70;100.00
26775;BME280;14362;51.902;7.626;2023-02-04T01:09:21;102458.84;;;5.73;100.00
26775;BME280;14362;51.902;7.626;2023-02-04T01:13:23;102477.13;;;5.74;100.00
26775;BME280;14362;51.902;7.626;2023-02-04T01:17:24;102479.06;;;5.74;100.00
26775;BME280;14362;51.902;7.626;2023-02-04T01:21:26;102494.72;;;5.68;100.00
26775;BME280;14362;51.902;7.626;2023-02-04T01:25:28;102488.03;;;5.64;100.00
26775;BME280;14362;51.902;7.626;2023-02-04T01:29:30;102489.59;;;5.60;100.00
26775;BME280;14362;51.902;7.626;2023-02-04T01:33:31;102497.03;;;5.60;100.00
26775;BME280;14362;51.902;7.626;2023-02-04T01:37:33;102500.91;;;5.59;100.00
26775;BME280;14362;51.902;7.626;2023-02-04T01:41:35;102516.19;;;5.61;100.00
26775;BME280;14362;51.902;7.626;2023-02-04T01:45:37;102509.28;;;5.64;100.00
26775;BME280;14362;51.902;7.626;2023-02-04T01:49:38;102515.53;;;5.71;100.00
26775;BME280;14362;51.902;7.626;2023-02-04T01:53:40;102525.25;;;5.73;100.00
26775;BME280;14362;51.902;7.626;2023-02-04T01:57:44;102522.59;;;5.78;100.00
26775;BME280;14362;51.902;7.626;2023-02-04T02:01:47;102527.66;;;5.81;100.00
26775;BME280;14362;51.902;7.626;2023-02-04T02:05:50;102533.09;;;5.93;100.00
26775;BME280;14362;51.902;7.626;2023-02-04T02:09:52;102535.53;;;5.89;100.00
26775;BME280;14362;51.902;7.626;2023-02-04T02:13:55;102544.41;;;5.91;100.00
26775;BME280;14362;51.902;7.626;2023-02-04T02:17:57;102546.09;;;5.92;100.00
26775;BME280;14362;51.902;7.626;2023-02-04T02:22:02;102532.59;;;5.96;100.00
26775;BME280;14362;51.902;7.626;2023-02-04T02:26:06;102542.34;;;5.98;100.00
26775;BME280;14362;51.902;7.626;2023-02-04T02:30:10;102554.22;;;5.99;100.00
26775;BME280;14362;51.902;7.626;2023-02-04T02:34:11;102560.94;;;6.03;100.00
26775;BME280;14362;51.902;7.626;2023-02-04T02:38:13;102565.66;;;6.02;100.00
26775;BME280;14362;51.902;7.626;2023-02-04T02:42:18;102558.44;;;6.01;100.00
26775;BME280;14362;51.902;7.626;2023-02-04T02:46:20;102559.03;;;6.03;100.00
26775;BME280;14362;51.902;7.626;2023-02-04T02:50:23;102555.69;;;6.01;100.00
26775;BME280;14362;51.902;7.626;2023-02-04T02:54:28;102566.00;;;6.06;100.00
26775;BME280;14362;51.902;7.626;2023-02-04T02:58:32;102555.16;;;6.04;100.00
26775;BME280;14362;51.902;7.626;2023-02-04T03:02:35;102552.84;;;6.12;100.00
26775;BME280;14362;51.902;7.626;2023-02-04T03:06:37;102561.03;;;6.07;100.00
26775;BME280;14362;51.902;7.626;2023-02-04T03:10:39;102568.75;;;6.06;100.00
26775;BME280;14362;51.902;7.626;2023-02-04T03:14:43;102569.84;;;6.05;100.00
26775;BME280;14362;51.902;7.626;2023-02-04T03:18:44;102566.22;;;6.04;100.00
26775;BME280;14362;51.902;7.626;2023-02-04T03:22:46;102562.97;;;6.07;100.00
26775;BME280;14362;51.902;7.626;2023-02-04T03:26:47;102566.00;;;6.06;100.00
26775;BME280;14362;51.902;7.626;2023-02-04T03:30:50;102569.00;;;6.04;100.00
26775;BME280;14362;51.902;7.626;2023-02-04T03:34:55;102574.78;;;6.03;100.00
26775;BME280;14362;51.902;7.626;2023-02-04T03:38:56;102576.13;;;6.00;100.00
26775;BME280;14362;51.902;7.626;2023-02-04T03:42:58;102582.50;;;6.01;100.00
26775;BME280;14362;51.902;7.626;2023-02-04T03:47:00;102583.09;;;6.03;100.00
26775;BME280;14362;51.902;7.626;2023-02-04T03:51:02;102577.56;;;6.03;100.00
26775;BME280;14362;51.902;7.626;2023-02-04T03:55:04;102595.84;;;6.04;100.00
26775;BME280;14362;51.902;7.626;2023-02-04T03:59:06;102601.66;;;6.02;100.00
26775;BME280;14362;51.902;7.626;2023-02-04T04:03:09;102617.41;;;6.02;100.00
26775;BME280;14362;51.902;7.626;2023-02-04T04:07:11;102619.56;;;6.00;100.00
26775;BME280;14362;51.902;7.626;2023-02-04T04:11:13;102617.91;;;5.99;100.00
26775;BME280;14362;51.902;7.626;2023-02-04T04:15:14;102624.28;;;5.99;100.00
26775;BME280;14362;51.902;7.626;2023-02-04T04:19:17;102627.28;;;5.98;100.00
26775;BME280;14362;51.902;7.626;2023-02-04T04:23:18;102639.69;;;5.95;100.00
26775;BME280;14362;51.902;7.626;2023-02-04T04:27:20;102642.22;;;5.97;100.00
26775;BME280;14362;51.902;7.626;2023-02-04T04:31:21;102641.38;;;5.96;100.00
26775;BME280;14362;51.902;7.626;2023-02-04T04:35:24;102644.97;;;5.97;100.00
26775;BME280;14362;51.902;7.626;2023-02-04T04:39:26;102647.50;;;5.98;100.00
26775;BME280;14362;51.902;7.626;2023-02-04T04:43:27;102654.97;;;5.98;100.00
26775;BME280;14362;51.902;7.626;2023-02-04T04:47:28;102664.94;;;5.99;100.00
26775;BME280;14362;51.902;7.626;2023-02-04T04:51:31;102673.50;;;5.97;100.00
26775;BME280;14362;51.902;7.626;2023-02-04T04:55:33;102677.38;;;5.96;100.00
26775;BME280;14362;51.902;7.626;2023-02-04T04:59:34;102673.75;;;5.96;100.00
26775;BME280;14362;51.902;7.626;2023-02-04T05:03:35;102670.97;;;5.96;100.00
26775;BME280;14362;51.902;7.626;2023-02-04T05:07:38;102690.56;;;6.06;100.00
26775;BME280;14362;51.902;7.626;2023-02-04T05:11:40;102684.16;;;6.05;100.00
26775;BME280;14362;51.902;7.626;2023-02-04T05:15:41;102690.56;;;6.06;100.00
26775;BME280;14362;51.902;7.626;2023-02-04T05:19:42;102697.78;;;6.07;100.00
26775;BME280;14362;51.902;7.626;2023-02-04T05:23:45;102705.00;;;6.07;100.00
26775;BME280;14362;51.902;7.626;2023-02-04T05:27:47;102720.53;;;6.08;100.00
26775;BME280;14362;51.902;7.626;2023-02-04T05:31:49;102720.25;;;6.10;100.00
26775;BME280;14362;51.902;7.626;2023-02-04T05:35:50;102727.00;;;6.14;100.00
26775;BME280;14362;51.902;7.626;2023-02-04T05:39:53;102726.13;;;6.13;100.00
26775;BME280;14362;51.902;7.626;2023-02-04T05:43:54;102732.78;;;6.12;100.00
26775;BME280;14362;51.902;7.626;2023-02-04T05:47:56;102730.84;;;6.13;100.00
26775;BME280;14362;51.902;7.626;2023-02-04T05:51:57;102734.44;;;6.13;100.00
26775;BME280;14362;51.902;7.626;2023-02-04T05:56:00;102745.78;;;6.12;100.00
26775;BME280;14362;51.902;7.626;2023-02-04T06:00:02;102739.66;;;6.10;100.00
26775;BME280;14362;51.902;7.626;2023-02-04T06:04:03;102756.75;;;6.07;100.00
26775;BME280;14362;51.902;7.626;2023-02-04T06:08:06;102756.75;;;6.07;100.00
26775;BME280;14362;51.902;7.626;2023-02-04T06:12:09;102760.13;;;6.09;100.00
26775;BME280;14362;51.902;7.626;2023-02-04T06:16:10;102766.50;;;6.09;100.00
26775;BME280;14362;51.902;7.626;2023-02-04T06:20:12;102768.41;;;6.09;100.00
26775;BME280;14362;51.902;7.626;2023-02-04T06:24:14;102778.06;;;6.07;100.00
26775;BME280;14362;51.902;7.626;2023-02-04T06:28:17;102788.28;;;6.06;100.00
26775;BME280;14362;51.902;7.626;2023-02-04T06:32:19;102781.31;;;6.04;100.00
26775;BME280;14362;51.902;7.626;2023-02-04T06:36:21;102797.94;;;6.04;100.00
26775;BME280;14362;51.902;7.626;2023-02-04T06:40:22;102793.13;;;5.99;100.00
26775;BME280;14362;51.902;7.626;2023-02-04T06:44:25;102787.81;;;5.98;100.00
26775;BME280;14362;51.902;7.626;2023-02-04T06:48:26;102775.59;;;5.94;100.00
26775;BME280;14362;51.902;7.626;2023-02-04T06:52:28;102805.44;;;5.92;100.00
26775;BME280;14362;51.902;7.626;2023-02-04T06:56:29;102808.69;;;5.89;100.00
26775;BME280;14362;51.902;7.626;2023-02-04T07:00:32;102807.59;;;5.90;100.00
26775;BME280;14362;51.902;7.626;2023-02-04T07:04:34;102837.19;;;5.89;100.00
26775;BME280;14362;51.902;7.626;2023-02-04T07:08:35;102821.66;;;5.88;100.00
26775;BME280;14362;51.902;7.626;2023-02-04T07:12:36;102816.13;;;5.88;100.00
26775;BME280;14362;51.902;7.626;2023-02-04T07:16:39;102829.63;;;5.85;100.00
26775;BME280;14362;51.902;7.626;2023-02-04T07:20:41;102821.56;;;5.83;100.00
26775;BME280;14362;51.902;7.626;2023-02-04T07:24:42;102828.78;;;5.84;100.00
26775;BME280;14362;51.902;7.626;2023-02-04T07:28:43;102821.91;;;5.87;100.00
26775;BME280;14362;51.902;7.626;2023-02-04T07:32:46;102834.19;;;5.91;100.00
26775;BME280;14362;51.902;7.626;2023-02-04T07:36:47;102838.13;;;5.95;100.00
26775;BME280;14362;51.902;7.626;2023-02-04T07:40:49;102840.41;;;5.98;100.00
26775;BME280;14362;51.902;7.626;2023-02-04T07:44:50;102841.88;;;6.00;100.00
26775;BME280;14362;51.902;7.626;2023-02-04T07:48:53;102833.91;;;6.04;100.00
26775;BME280;14362;51.902;7.626;2023-02-04T07:52:55;102846.66;;;6.16;100.00
26775;BME280;14362;51.902;7.626;2023-02-04T07:56:56;102848.94;;;6.19;100.00
26775;BME280;14362;51.902;7.626;2023-02-04T08:00:57;102854.34;;;6.25;100.00
26775;BME280;14362;51.902;7.626;2023-02-04T08:05:01;102871.41;;;6.34;100.00
26775;BME280;14362;51.902;7.626;2023-02-04T08:09:03;102874.78;;;6.36;100.00
26775;BME280;14362;51.902;7.626;2023-02-04T08:13:04;102882.31;;;6.52;100.00
26775;BME280;14362;51.902;7.626;2023-02-04T08:17:06;102889.44;;;6.48;100.00
26775;BME280;14362;51.902;7.626;2023-02-04T08:21:08;102886.47;;;6.66;100.00
26775;BME280;14362;51.902;7.626;2023-02-04T08:25:11;102892.44;;;6.58;100.00
26775;BME280;14362;51.902;7.626;2023-02-04T08:29:13;102908.41;;;6.67;100.00
26775;BME280;14362;51.902;7.626;2023-02-04T08:33:14;102909.00;;;6.69;100.00
26775;BME280;14362;51.902;7.626;2023-02-04T08:37:17;102914.28;;;6.71;100.00
26775;BME280;14362;51.902;7.626;2023-02-04T08:41:18;102913.97;;;6.67;100.00
26775;BME280;14362;51.902;7.626;2023-02-04T08:45:20;102923.84;;;6.63;100.00
26775;BME280;14362;51.902;7.626;2023-02-04T08:49:21;102937.81;;;6.68;100.00
26775;BME280;14362;51.902;7.626;2023-02-04T08:53:24;102934.97;;;6.52;100.00
26775;BME280;14362;51.902;7.626;2023-02-04T08:57:25;102939.63;;;6.51;100.00
26775;BME280;14362;51.902;7.626;2023-02-04T09:01:27;102943.63;;;6.44;100.00
26775;BME280;14362;51.902;7.626;2023-02-04T09:05:28;102946.63;;;6.54;100.00
26775;BME280;14362;51.902;7.626;2023-02-04T09:09:31;102948.94;;;6.57;100.00
26775;BME280;14362;51.902;7.626;2023-02-04T09:13:32;102954.19;;;6.70;100.00
26775;BME280;14362;51.902;7.626;2023-02-04T09:17:34;102958.03;;;6.69;100.00
26775;BME280;14362;51.902;7.626;2023-02-04T09:21:36;102956.50;;;6.61;100.00
26775;BME280;14362;51.902;7.626;2023-02-04T09:25:39;102959.38;;;6.66;100.00
26775;BME280;14362;51.902;7.626;2023-02-04T09:29:41;102967.84;;;6.60;100.00
26775;BME280;14362;51.902;7.626;2023-02-04T09:33:43;102976.63;;;6.57;100.00
26775;BME280;14362;51.902;7.626;2023-02-04T09:37:44;102971.53;;;6.77;100.00
26775;BME280;14362;51.902;7.626;2023-02-04T09:41:47;102966.66;;;6.84;100.00
26775;BME280;14362;51.902;7.626;2023-02-04T09:45:48;102975.09;;;6.89;100.00
26775;BME280;14362;51.902;7.626;2023-02-04T09:49:50;102978.38;;;7.13;100.00
26775;BME280;14362;51.902;7.626;2023-02-04T09:53:53;102979.28;;;6.91;100.00
26775;BME280;14362;51.902;7.626;2023-02-04T09:57:57;102988.81;;;6.95;100.00
26775;BME280;14362;51.902;7.626;2023-02-04T10:02:00;102997.09;;;7.07;100.00
26775;BME280;14362;51.902;7.626;2023-02-04T10:06:02;103008.88;;;7.13;100.00
26775;BME280;14362;51.902;7.626;2023-02-04T10:10:05;103013.84;;;7.11;100.00
26775;BME280;14362;51.902;7.626;2023-02-04T10:14:12;103011.38;;;7.26;100.00
26775;BME280;14362;51.902;7.626;2023-02-04T10:18:25;103009.06;;;7.23;100.00
26775;BME280;14362;51.902;7.626;2023-02-04T10:22:29;103000.75;;;7.23;100.00
26775;BME280;14362;51.902;7.626;2023-02-04T10:26:31;103003.16;;;7.31;100.00
26775;BME280;14362;51.902;7.626;2023-02-04T10:30:41;103007.03;;;7.47;100.00
26775;BME280;14362;51.902;7.626;2023-02-04T10:34:43;103009.31;;;7.50;100.00
26775;BME280;14362;51.902;7.626;2023-02-04T10:38:58;103014.97;;;7.55;100.00
26775;BME280;14362;51.902;7.626;2023-02-04T10:43:06;103016.06;;;7.54;100.00
26775;BME280;14362;51.902;7.626;2023-02-04T10:47:15;103029.16;;;7.58;100.00
26775;BME280;14362;51.902;7.626;2023-02-04T10:51:17;103024.97;;;7.56;100.00
26775;BME280;14362;51.902;7.626;2023-02-04T10:55:20;103030.56;;;7.89;100.00
26775;BME280;14362;51.902;7.626;2023-02-04T10:59:23;103025.88;;;7.89;100.00
26775;BME280;14362;51.902;7.626;2023-02-04T11:03:28;103026.94;;;8.05;100.00
26775;BME280;14362;51.902;7.626;2023-02-04T11:07:31;103030.06;;;7.92;100.00
26775;BME280;14362;51.902;7.626;2023-02-04T11:11:32;103027.13;;;8.14;100.00
26775;BME280;14362;51.902;7.626;2023-02-04T11:15:39;103021.94;;;8.02;100.00
26775;BME280;14362;51.902;7.626;2023-02-04T11:19:42;103030.81;;;8.04;100.00
26775;BME280;14362;51.902;7.626;2023-02-04T11:23:45;103032.38;;;8.11;100.00
26775;BME280;14362;51.902;7.626;2023-02-04T11:27:46;103020.66;;;8.09;100.00
26775;BME280;14362;51.902;7.626;2023-02-04T11:31:57;103016.56;;;8.28;100.00
26775;BME280;14362;51.902;7.626;2023-02-04T11:36:02;103027.22;;;8.03;100.00
26775;BME280;14362;51.902;7.626;2023-02-04T11:40:21;103029.06;;;8.14;100.00
26775;BME280;14362;51.902;7.626;2023-02-04T11:44:23;103030.75;;;8.15;100.00
26775;BME280;14362;51.902;7.626;2023-02-04T11:48:25;103041.25;;;8.13;100.00
26775;BME280;14362;51.902;7.626;2023-02-04T11:52:28;103026.03;;;8.15;100.00
26775;BME280;14362;51.902;7.626;2023-02-04T11:56:29;103021.34;;;8.16;100.00
26775;BME280;14362;51.902;7.626;2023-02-04T12:00:31;103015.09;;;8.25;100.00
26775;BME280;14362;51.902;7.626;2023-02-04T12:04:33;103025.44;;;8.13;100.00
26775;BME280;14362;51.902;7.626;2023-02-04T12:08:36;103036.50;;;8.25;100.00
26775;BME280;14362;51.902;7.626;2023-02-04T12:12:41;103034.13;;;8.17;100.00
26775;BME280;14362;51.902;7.626;2023-02-04T12:16:43;103039.56;;;8.12;100.00
26775;BME280;14362;51.902;7.626;2023-02-04T12:20:45;103044.22;;;8.07;100.00
26775;BME280;14362;51.902;7.626;2023-02-04T12:24:48;103045.06;;;8.07;100.00
26775;BME280;14362;51.902;7.626;2023-02-04T12:28:51;103054.59;;;8.11;100.00
26775;BME280;14362;51.902;7.626;2023-02-04T12:32:52;103056.84;;;8.14;100.00
26775;BME280;14362;51.902;7.626;2023-02-04T12:36:54;103055.59;;;8.05;100.00
26775;BME280;14362;51.902;7.626;2023-02-04T12:40:57;103055.69;;;8.10;100.00
26775;BME280;14362;51.902;7.626;2023-02-04T12:44:58;103064.41;;;8.02;100.00
26775;BME280;14362;51.902;7.626;2023-02-04T12:48:59;103063.88;;;8.16;100.00
26775;BME280;14362;51.902;7.626;2023-02-04T12:53:01;103057.88;;;8.08;100.00
26775;BME280;14362;51.902;7.626;2023-02-04T12:57:04;103064.31;;;7.97;100.00
26775;BME280;14362;51.902;7.626;2023-02-04T13:01:06;103061.63;;;8.02;100.00
26775;BME280;14362;51.902;7.626;2023-02-04T13:05:10;103055.41;;;8.11;100.00
26775;BME280;14362;51.902;7.626;2023-02-04T13:09:13;103051.53;;;8.12;100.00
26775;BME280;14362;51.902;7.626;2023-02-04T13:13:16;103048.50;;;7.98;100.00
26775;BME280;14362;51.902;7.626;2023-02-04T13:17:17;103045.72;;;7.98;100.00
26775;BME280;14362;51.902;7.626;2023-02-04T13:21:18;103047.06;;;7.95;100.00
26775;BME280;14362;51.902;7.626;2023-02-04T13:25:20;103043.94;;;7.92;100.00
26775;BME280;14362;51.902;7.626;2023-02-04T13:29:23;103042.97;;;7.98;100.00
26775;BME280;14362;51.902;7.626;2023-02-04T13:33:24;103051.03;;;7.99;100.00
26775;BME280;14362;51.902;7.626;2023-02-04T13:37:25;103045.50;;;8.15;100.00
26775;BME280;14362;51.902;7.626;2023-02-04T13:41:27;103038.25;;;8.14;100.00
26775;BME280;14362;51.902;7.626;2023-02-04T13:45:30;103048.63;;;8.19;100.00
26775;BME280;14362;51.902;7.626;2023-02-04T13:49:31;103037.38;;;8.14;100.00
26775;BME280;14362;51.902;7.626;2023-02-04T13:53:33;103041.97;;;8.20;100.00
26775;BME280;14362;51.902;7.626;2023-02-04T13:57:35;103032.69;;;8.14;100.00
26775;BME280;14362;51.902;7.626;2023-02-04T14:01:38;103027.63;;;8.11;100.00
26775;BME280;14362;51.902;7.626;2023-02-04T14:05:40;103040.13;;;8.25;100.00
26775;BME280;14362;51.902;7.626;2023-02-04T14:09:41;103036.16;;;8.21;100.00
26775;BME280;14362;51.902;7.626;2023-02-04T14:13:43;103043.34;;;8.17;100.00
26775;BME280;14362;51.902;7.626;2023-02-04T14:17:45;103040.44;;;8.12;100.00
26775;BME280;14362;51.902;7.626;2023-02-04T14:21:47;103042.63;;;8.10;100.00
26775;BME280;14362;51.902;7.626;2023-02-04T14:25:49;103042.19;;;8.02;100.00
26775;BME280;14362;51.902;7.626;2023-02-04T14:29:50;103049.09;;;8.00;100.00
26775;BME280;14362;51.902;7.626;2023-02-04T14:33:53;103051.34;;;8.03;100.00
26775;BME280;14362;51.902;7.626;2023-02-04T14:37:58;103046.38;;;8.05;100.00
26775;BME280;14362;51.902;7.626;2023-02-04T14:41:59;103046.31;;;8.00;100.00
26775;BME280;14362;51.902;7.626;2023-02-04T14:46:03;103045.28;;;8.06;100.00
26775;BME280;14362;51.902;7.626;2023-02-04T14:50:08;103045.88;;;8.07;100.00
26775;BME280;14362;51.902;7.626;2023-02-04T14:54:11;103048.75;;;8.12;99.09
26775;BME280;14362;51.902;7.626;2023-02-04T14:58:12;103058.09;;;8.07;100.00
26775;BME280;14362;51.902;7.626;2023-02-04T15:02:14;103051.44;;;8.07;100.00
26775;BME280;14362;51.902;7.626;2023-02-04T15:06:17;103048.75;;;7.96;100.00
26775;BME280;14362;51.902;7.626;2023-02-04T15:10:18;103064.91;;;7.83;100.00
26775;BME280;14362;51.902;7.626;2023-02-04T15:14:20;103060.34;;;7.77;100.00
26775;BME280;14362;51.902;7.626;2023-02-04T15:18:22;103056.53;;;7.66;100.00
26775;BME280;14362;51.902;7.626;2023-02-04T15:22:25;103055.34;;;7.62;100.00
26775;BME280;14362;51.902;7.626;2023-02-04T15:26:26;103054.75;;;7.60;100.00
26775;BME280;14362;51.902;7.626;2023-02-04T15:30:28;103056.84;;;7.53;100.00
26775;BME280;14362;51.902;7.626;2023-02-04T15:34:29;103065.06;;;7.48;100.00
26775;BME280;14362;51.902;7.626;2023-02-04T15:38:32;103060.72;;;7.52;100.00
26775;BME280;14362;51.902;7.626;2023-02-04T15:42:33;103064.66;;;7.56;100.00
26775;BME280;14362;51.902;7.626;2023-02-04T15:46:35;103073.63;;;7.47;100.00
26775;BME280;14362;51.902;7.626;2023-02-04T15:50:37;103074.88;;;7.39;100.00
26775;BME280;14362;51.902;7.626;2023-02-04T15:54:40;103072.72;;;7.30;100.00
26775;BME280;14362;51.902;7.626;2023-02-04T15:58:41;103075.06;;;7.21;100.00
26775;BME280;14362;51.902;7.626;2023-02-04T16:02:43;103072.19;;;7.16;100.00
26775;BME280;14362;51.902;7.626;2023-02-04T16:06:44;103079.53;;;7.11;100.00
26775;BME280;14362;51.902;7.626;2023-02-04T16:10:47;103073.69;;;6.96;100.00
26775;BME280;14362;51.902;7.626;2023-02-04T16:14:53;103075.25;;;6.92;100.00
26775;BME280;14362;51.902;7.626;2023-02-04T16:18:54;103086.94;;;6.83;100.00
26775;BME280;14362;51.902;7.626;2023-02-04T16:22:55;103078.03;;;6.81;100.00
26775;BME280;14362;51.902;7.626;2023-02-04T16:26:58;103088.03;;;6.70;100.00
26775;BME280;14362;51.902;7.626;2023-02-04T16:31:00;103087.81;;;6.60;100.00
26775;BME280;14362;51.902;7.626;2023-02-04T16:35:01;103096.00;;;6.44;100.00
26775;BME280;14362;51.902;7.626;2023-02-04T16:39:04;103091.78;;;6.30;100.00
26775;BME280;14362;51.902;7.626;2023-02-04T16:43:07;103100.53;;;6.15;100.00
26775;BME280;14362;51.902;7.626;2023-02-04T16:47:08;103108.94;;;5.98;100.00
26775;BME280;14362;51.902;7.626;2023-02-04T16:51:10;103112.88;;;5.90;100.00
26775;BME280;14362;51.902;7.626;2023-02-04T16:55:12;103116.00;;;5.82;100.00
26775;BME280;14362;51.902;7.626;2023-02-04T16:59:14;103121.16;;;5.79;100.00
26775;BME280;14362;51.902;7.626;2023-02-04T17:03:16;103128.81;;;5.77;100.00
26775;BME280;14362;51.902;7.626;2023-02-04T17:07:17;103136.06;;;5.78;100.00
26775;BME280;14362;51.902;7.626;2023-02-04T17:11:19;103123.09;;;5.78;100.00
26775;BME280;14362;51.902;7.626;2023-02-04T17:15:31;103122.16;;;5.66;100.00
26775;BME280;14362;51.902;7.626;2023-02-04T17:19:33;103116.94;;;5.58;100.00
26775;BME280;14362;51.902;7.626;2023-02-04T17:23:34;103127.66;;;5.55;100.00
26775;BME280;14362;51.902;7.626;2023-02-04T17:27:36;103130.63;;;5.53;100.00
26775;BME280;14362;51.902;7.626;2023-02-04T17:31:39;103130.97;;;5.45;100.00
26775;BME280;14362;51.902;7.626;2023-02-04T17:35:42;103130.13;;;5.45;100.00
26775;BME280;14362;51.902;7.626;2023-02-04T17:39:43;103126.38;;;5.39;100.00
26775;BME280;14362;51.902;7.626;2023-02-04T17:43:44;103123.59;;;5.39;100.00
26775;BME280;14362;51.902;7.626;2023-02-04T17:47:47;103120.94;;;5.33;100.00
26775;BME280;14362;51.902;7.626;2023-02-04T17:51:49;103109.09;;;5.26;100.00
26775;BME280;14362;51.902;7.626;2023-02-04T17:55:50;103115.63;;;5.13;100.00
26775;BME280;14362;51.902;7.626;2023-02-04T17:59:51;103114.09;;;5.00;100.00
26775;BME280;14362;51.902;7.626;2023-02-04T18:03:55;103113.56;;;4.91;100.00
26775;BME280;14362;51.902;7.626;2023-02-04T18:08:00;103119.25;;;4.78;100.00
26775;BME280;14362;51.902;7.626;2023-02-04T18:12:13;103121.47;;;4.70;100.00
26775;BME280;14362;51.902;7.626;2023-02-04T18:16:22;103128.25;;;4.67;100.00
26775;BME280;14362;51.902;7.626;2023-02-04T18:20:25;103122.13;;;4.65;100.00
26775;BME280;14362;51.902;7.626;2023-02-04T18:24:32;103125.97;;;4.64;100.00
26775;BME280;14362;51.902;7.626;2023-02-04T18:28:35;103122.28;;;4.70;100.00
26775;BME280;14362;51.902;7.626;2023-02-04T18:32:41;103123.97;;;4.71;100.00
26775;BME280;14362;51.902;7.626;2023-02-04T18:36:44;103120.31;;;4.77;100.00
26775;BME280;14362;51.902;7.626;2023-02-04T18:40:45;103116.47;;;4.78;100.00
26775;BME280;14362;51.902;7.626;2023-02-04T18:44:47;103128.81;;;4.76;100.00
26775;BME280;14362;51.902;7.626;2023-02-04T18:48:57;103127.09;;;4.81;100.00
26775;BME280;14362;51.902;7.626;2023-02-04T18:53:06;103132.81;;;4.80;100.00
26775;BME280;14362;51.902;7.626;2023-02-04T18:57:24;103141.56;;;4.77;100.00
26775;BME280;14362;51.902;7.626;2023-02-04T19:01:33;103142.69;;;4.69;100.00
26775;BME280;14362;51.902;7.626;2023-02-04T19:05:42;103147.91;;;4.59;100.00
26775;BME280;14362;51.902;7.626;2023-02-04T19:09:48;103144.13;;;4.54;100.00
26775;BME280;14362;51.902;7.626;2023-02-04T19:13:51;103144.19;;;4.47;100.00
26775;BME280;14362;51.902;7.626;2023-02-04T19:17:56;103134.56;;;4.32;100.00
26775;BME280;14362;51.902;7.626;2023-02-04T19:22:11;103128.69;;;4.22;100.00
26775;BME280;14362;51.902;7.626;2023-02-04T19:26:28;103133.88;;;4.12;100.00
26775;BME280;14362;51.902;7.626;2023-02-04T19:30:42;103132.25;;;4.04;100.00
26775;BME280;14362;51.902;7.626;2023-02-04T19:34:45;103143.16;;;3.93;100.00
26775;BME280;14362;51.902;7.626;2023-02-04T19:38:47;103147.41;;;3.89;100.00
26775;BME280;14362;51.902;7.626;2023-02-04T19:42:53;103148.28;;;3.83;100.00
26775;BME280;14362;51.902;7.626;2023-02-04T19:46:56;103152.78;;;3.78;100.00
26775;BME280;14362;51.902;7.626;2023-02-04T19:51:00;103142.44;;;3.73;100.00
26775;BME280;14362;51.902;7.626;2023-02-04T19:55:22;103156.28;;;3.60;100.00
26775;BME280;14362;51.902;7.626;2023-02-04T19:59:28;103156.50;;;3.59;100.00
26775;BME280;14362;51.902;7.626;2023-02-04T20:03:33;103147.41;;;3.52;100.00
26775;BME280;14362;51.902;7.626;2023-02-04T20:07:36;103160.59;;;3.43;100.00
26775;BME280;14362;51.902;7.626;2023-02-04T20:15:58;103146.06;;;3.30;100.00
26775;BME280;14362;51.902;7.626;2023-02-04T20:20:14;103149.28;;;3.20;100.00
26775;BME280;14362;51.902;7.626;2023-02-04T20:24:16;103140.81;;;3.15;100.00
26775;BME280;14362;51.902;7.626;2023-02-04T20:28:24;103141.66;;;3.09;100.00
26775;BME280;14362;51.902;7.626;2023-02-04T20:32:34;103129.38;;;3.05;100.00
26775;BME280;14362;51.902;7.626;2023-02-04T20:36:40;103126.25;;;2.96;100.00
26775;BME280;14362;51.902;7.626;2023-02-04T20:40:42;103133.66;;;2.95;100.00
26775;BME280;14362;51.902;7.626;2023-02-04T20:44:45;103132.81;;;2.95;100.00
26775;BME280;14362;51.902;7.626;2023-02-04T20:48:48;103128.81;;;2.91;100.00
26775;BME280;14362;51.902;7.626;2023-02-04T20:53:04;103126.50;;;2.81;100.00
26775;BME280;14362;51.902;7.626;2023-02-04T20:57:12;103127.16;;;2.77;100.00
26775;BME280;14362;51.902;7.626;2023-02-04T21:01:33;103121.44;;;2.72;100.00
26775;BME280;14362;51.902;7.626;2023-02-04T21:05:37;103110.41;;;2.72;100.00
26775;BME280;14362;51.902;7.626;2023-02-04T21:09:39;103108.53;;;2.72;100.00
26775;BME280;14362;51.902;7.626;2023-02-04T21:13:41;103109.56;;;2.65;100.00